sensor_id;sensor_type;location;lat;lon;timestamp;pressure;altitude;pressure_sealevel;temperature;humidity
20909;BME280;10614;53.198;6.570;2023-04-03T00:00:45;103317.53;;;5.44;66.29
20909;BME280;10614;53.198;6.570;2023-04-03T00:02:48;103317.44;;;5.39;66.21
20909;BME280;10614;53.198;6.570;2023-04-03T00:04:50;103318.16;;;5.34;65.99
20909;BME280;10614;53.198;6.570;2023-04-03T00:06:54;103322.41;;;5.27;66.71
20909;BME280;10614;53.198;6.570;2023-04-03T00:08:56;103315.28;;;5.20;66.14
20909;BME280;10614;53.198;6.570;2023-04-03T00:10:58;103319.59;;;5.18;66.61
20909;BME280;10614;53.198;6.570;2023-04-03T00:13:00;103325.63;;;5.17;66.63
20909;BME280;10614;53.198;6.570;2023-04-03T00:15:05;103316.88;;;5.15;66.40
20909;BME280;10614;53.198;6.570;2023-04-03T00:17:06;103325.50;;;5.11;66.23
20909;BME280;10614;53.198;6.570;2023-04-03T00:19:10;103328.09;;;5.09;66.08
20909;BME280;10614;53.198;6.570;2023-04-03T00:21:13;103323.63;;;5.05;66.26
20909;BME280;10614;53.198;6.570;2023-04-03T00:23:16;103323.63;;;5.03;67.56
20909;BME280;10614;53.198;6.570;2023-04-03T00:25:18;103324.50;;;5.04;66.44
20909;BME280;10614;53.198;6.570;2023-04-03T00:27:19;103327.00;;;4.99;66.50
20909;BME280;10614;53.198;6.570;2023-04-03T00:29:21;103323.47;;;4.97;67.39
20909;BME280;10614;53.198;6.570;2023-04-03T00:31:23;103319.94;;;4.95;67.41
20909;BME280;10614;53.198;6.570;2023-04-03T00:33:25;103328.56;;;4.93;66.46
20909;BME280;10614;53.198;6.570;2023-04-03T00:35:28;103326.78;;;4.90;66.49
20909;BME280;10614;53.198;6.570;2023-04-03T00:37:30;103326.72;;;4.89;66.45
20909;BME280;10614;53.198;6.570;2023-04-03T00:39:32;103326.66;;;4.85;66.68
20909;BME280;10614;53.198;6.570;2023-04-03T00:41:34;103334.38;;;4.81;66.19
20909;BME280;10614;53.198;6.570;2023-04-03T00:43:36;103332.53;;;4.77;65.63
20909;BME280;10614;53.198;6.570;2023-04-03T00:45:39;103342.09;;;4.76;66.55
20909;BME280;10614;53.198;6.570;2023-04-03T00:47:42;103335.09;;;4.74;65.60
20909;BME280;10614;53.198;6.570;2023-04-03T00:49:44;103343.69;;;4.70;66.48
20909;BME280;10614;53.198;6.570;2023-04-03T00:51:48;103338.34;;;4.65;67.09
20909;BME280;10614;53.198;6.570;2023-04-03T00:53:55;103339.16;;;4.62;66.91
20909;BME280;10614;53.198;6.570;2023-04-03T00:55:58;103340.00;;;4.61;66.66
20909;BME280;10614;53.198;6.570;2023-04-03T00:58:01;103343.44;;;4.60;66.61
20909;BME280;10614;53.198;6.570;2023-04-03T01:00:08;103342.50;;;4.57;66.27
20909;BME280;10614;53.198;6.570;2023-04-03T01:02:10;103341.53;;;4.53;66.46
20909;BME280;10614;53.198;6.570;2023-04-03T01:04:26;103339.69;;;4.49;66.40
20909;BME280;10614;53.198;6.570;2023-04-03T01:06:30;103341.38;;;4.47;67.37
20909;BME280;10614;53.198;6.570;2023-04-03T01:08:38;103338.75;;;4.46;66.16
20909;BME280;10614;53.198;6.570;2023-04-03T01:10:40;103336.84;;;4.40;67.10
20909;BME280;10614;53.198;6.570;2023-04-03T01:12:44;103345.56;;;4.40;66.53
20909;BME280;10614;53.198;6.570;2023-04-03T01:14:48;103348.19;;;4.40;66.54
20909;BME280;10614;53.198;6.570;2023-04-03T01:16:52;103348.94;;;4.36;67.18
20909;BME280;10614;53.198;6.570;2023-04-03T01:18:54;103350.63;;;4.34;66.47
20909;BME280;10614;53.198;6.570;2023-04-03T01:21:19;103347.03;;;4.31;67.81
20909;BME280;10614;53.198;6.570;2023-04-03T01:23:42;103348.75;;;4.29;66.82
20909;BME280;10614;53.198;6.570;2023-04-03T01:25:51;103343.41;;;4.24;68.45
20909;BME280;10614;53.198;6.570;2023-04-03T01:27:54;103340.50;;;4.13;67.03
20909;BME280;10614;53.198;6.570;2023-04-03T01:29:56;103349.25;;;4.15;67.86
20909;BME280;10614;53.198;6.570;2023-04-03T01:32:00;103351.78;;;4.12;68.33
20909;BME280;10614;53.198;6.570;2023-04-03T01:34:02;103346.44;;;4.08;68.72
20909;BME280;10614;53.198;6.570;2023-04-03T01:36:05;103341.09;;;4.03;68.91
20909;BME280;10614;53.198;6.570;2023-04-03T01:38:07;103342.78;;;4.01;69.04
20909;BME280;10614;53.198;6.570;2023-04-03T01:40:09;103342.69;;;3.98;68.95
20909;BME280;10614;53.198;6.570;2023-04-03T01:42:11;103342.69;;;3.98;68.61
20909;BME280;10614;53.198;6.570;2023-04-03T01:44:13;103341.78;;;3.96;69.40
20909;BME280;10614;53.198;6.570;2023-04-03T01:46:16;103346.88;;;3.93;69.71
20909;BME280;10614;53.198;6.570;2023-04-03T01:48:19;103344.25;;;3.91;70.73
20909;BME280;10614;53.198;6.570;2023-04-03T01:50:21;103347.69;;;3.90;69.02
20909;BME280;10614;53.198;6.570;2023-04-03T01:52:23;103345.06;;;3.89;69.23
20909;BME280;10614;53.198;6.570;2023-04-03T01:54:25;103347.63;;;3.87;69.66
20909;BME280;10614;53.198;6.570;2023-04-03T01:56:26;103348.44;;;3.86;70.10
20909;BME280;10614;53.198;6.570;2023-04-03T01:58:28;103349.22;;;3.84;70.65
20909;BME280;10614;53.198;6.570;2023-04-03T02:00:30;103339.41;;;3.73;70.88
20909;BME280;10614;53.198;6.570;2023-04-03T02:02:32;103352.38;;;3.72;70.97
20909;BME280;10614;53.198;6.570;2023-04-03T02:04:35;103353.16;;;3.68;70.72
20909;BME280;10614;53.198;6.570;2023-04-03T02:06:37;103356.50;;;3.65;70.80
20909;BME280;10614;53.198;6.570;2023-04-03T02:08:39;103361.72;;;3.65;71.90
20909;BME280;10614;53.198;6.570;2023-04-03T02:10:42;103359.97;;;3.64;70.74
20909;BME280;10614;53.198;6.570;2023-04-03T02:12:44;103360.84;;;3.63;71.89
20909;BME280;10614;53.198;6.570;2023-04-03T02:14:46;103372.88;;;3.59;72.34
20909;BME280;10614;53.198;6.570;2023-04-03T02:16:47;103376.13;;;3.52;72.18
20909;BME280;10614;53.198;6.570;2023-04-03T02:18:49;103383.00;;;3.50;72.82
20909;BME280;10614;53.198;6.570;2023-04-03T02:20:52;103374.22;;;3.47;72.80
20909;BME280;10614;53.198;6.570;2023-04-03T02:22:54;103376.63;;;3.41;73.11
20909;BME280;10614;53.198;6.570;2023-04-03T02:24:56;103379.16;;;3.37;73.03
20909;BME280;10614;53.198;6.570;2023-04-03T02:26:58;103377.38;;;3.36;73.31
20909;BME280;10614;53.198;6.570;2023-04-03T02:29:00;103382.56;;;3.35;73.09
20909;BME280;10614;53.198;6.570;2023-04-03T02:31:03;103385.97;;;3.34;73.73
20909;BME280;10614;53.198;6.570;2023-04-03T02:33:06;103388.53;;;3.32;73.18
20909;BME280;10614;53.198;6.570;2023-04-03T02:35:08;103382.44;;;3.32;73.54
20909;BME280;10614;53.198;6.570;2023-04-03T02:37:12;103393.69;;;3.31;73.59
20909;BME280;10614;53.198;6.570;2023-04-03T02:39:13;103386.63;;;3.27;74.38
20909;BME280;10614;53.198;6.570;2023-04-03T02:41:16;103384.72;;;3.21;73.92
20909;BME280;10614;53.198;6.570;2023-04-03T02:43:18;103387.22;;;3.18;74.33
20909;BME280;10614;53.198;6.570;2023-04-03T02:45:20;103397.53;;;3.15;74.57
20909;BME280;10614;53.198;6.570;2023-04-03T02:47:21;103398.41;;;3.15;75.45
20909;BME280;10614;53.198;6.570;2023-04-03T02:49:23;103398.41;;;3.15;75.62
20909;BME280;10614;53.198;6.570;2023-04-03T02:51:25;103395.66;;;3.11;75.61
20909;BME280;10614;53.198;6.570;2023-04-03T02:53:28;103388.56;;;3.05;75.41
20909;BME280;10614;53.198;6.570;2023-04-03T02:55:30;103389.38;;;3.04;76.12
20909;BME280;10614;53.198;6.570;2023-04-03T02:57:33;103391.88;;;3.01;76.40
20909;BME280;10614;53.198;6.570;2023-04-03T02:59:35;103397.03;;;3.00;76.03
20909;BME280;10614;53.198;6.570;2023-04-03T03:01:37;103392.69;;;2.99;76.40
20909;BME280;10614;53.198;6.570;2023-04-03T03:03:39;103395.22;;;2.97;76.61
20909;BME280;10614;53.198;6.570;2023-04-03T03:05:41;103400.34;;;2.94;76.06
20909;BME280;10614;53.198;6.570;2023-04-03T03:07:42;103397.59;;;2.89;77.04
20909;BME280;10614;53.198;6.570;2023-04-03T03:09:47;103397.50;;;2.86;77.37
20909;BME280;10614;53.198;6.570;2023-04-03T03:11:51;103396.50;;;2.83;77.89
20909;BME280;10614;53.198;6.570;2023-04-03T03:13:52;103395.56;;;2.81;77.26
20909;BME280;10614;53.198;6.570;2023-04-03T03:15:54;103398.16;;;2.81;77.41
20909;BME280;10614;53.198;6.570;2023-04-03T03:17:56;103390.34;;;2.81;77.90
20909;BME280;10614;53.198;6.570;2023-04-03T03:19:58;103397.25;;;2.79;78.03
20909;BME280;10614;53.198;6.570;2023-04-03T03:22:02;103391.88;;;2.74;78.11
20909;BME280;10614;53.198;6.570;2023-04-03T03:24:04;103397.97;;;2.74;77.72
20909;BME280;10614;53.198;6.570;2023-04-03T03:26:09;103396.97;;;2.71;78.42
20909;BME280;10614;53.198;6.570;2023-04-03T03:28:11;103396.88;;;2.68;78.76
20909;BME280;10614;53.198;6.570;2023-04-03T03:30:13;103395.16;;;2.68;78.82
20909;BME280;10614;53.198;6.570;2023-04-03T03:32:15;103385.53;;;2.66;78.46
20909;BME280;10614;53.198;6.570;2023-04-03T03:34:17;103393.28;;;2.64;78.55
20909;BME280;10614;53.198;6.570;2023-04-03T03:36:18;103393.28;;;2.64;78.62
20909;BME280;10614;53.198;6.570;2023-04-03T03:38:20;103414.13;;;2.66;78.95
20909;BME280;10614;53.198;6.570;2023-04-03T03:40:22;103416.50;;;2.60;79.30
20909;BME280;10614;53.198;6.570;2023-04-03T03:42:26;103409.34;;;2.52;79.26
20909;BME280;10614;53.198;6.570;2023-04-03T03:44:27;103421.47;;;2.52;79.76
20909;BME280;10614;53.198;6.570;2023-04-03T03:46:30;103424.00;;;2.50;79.64
20909;BME280;10614;53.198;6.570;2023-04-03T03:48:32;103417.88;;;2.48;80.18
20909;BME280;10614;53.198;6.570;2023-04-03T03:50:34;103426.47;;;2.46;79.92
20909;BME280;10614;53.198;6.570;2023-04-03T03:52:36;103415.06;;;2.42;80.50
20909;BME280;10614;53.198;6.570;2023-04-03T03:54:37;103403.72;;;2.40;80.40
20909;BME280;10614;53.198;6.570;2023-04-03T03:56:39;103415.78;;;2.38;80.14
20909;BME280;10614;53.198;6.570;2023-04-03T03:58:42;103408.75;;;2.36;80.68
20909;BME280;10614;53.198;6.570;2023-04-03T04:00:44;103412.19;;;2.35;80.92
20909;BME280;10614;53.198;6.570;2023-04-03T04:02:46;103424.25;;;2.32;81.09
20909;BME280;10614;53.198;6.570;2023-04-03T04:04:48;103431.88;;;2.28;80.78
20909;BME280;10614;53.198;6.570;2023-04-03T04:06:50;103433.53;;;2.26;81.33
20909;BME280;10614;53.198;6.570;2023-04-03T04:08:52;103429.13;;;2.23;81.79
20909;BME280;10614;53.198;6.570;2023-04-03T04:10:54;103430.72;;;2.20;81.88
20909;BME280;10614;53.198;6.570;2023-04-03T04:12:56;103435.75;;;2.15;82.29
20909;BME280;10614;53.198;6.570;2023-04-03T04:14:59;103439.09;;;2.11;81.66
20909;BME280;10614;53.198;6.570;2023-04-03T04:17:00;103439.97;;;2.11;82.38
20909;BME280;10614;53.198;6.570;2023-04-03T04:19:03;103443.38;;;2.10;82.67
20909;BME280;10614;53.198;6.570;2023-04-03T04:21:05;103439.09;;;2.11;82.63
20909;BME280;10614;53.198;6.570;2023-04-03T04:23:06;103432.97;;;2.10;82.76
20909;BME280;10614;53.198;6.570;2023-04-03T04:25:08;103438.13;;;2.09;83.17
20909;BME280;10614;53.198;6.570;2023-04-03T04:27:10;103437.19;;;2.07;83.42
20909;BME280;10614;53.198;6.570;2023-04-03T04:29:12;103431.81;;;2.02;83.53
20909;BME280;10614;53.198;6.570;2023-04-03T04:31:15;103423.00;;;1.99;83.97
20909;BME280;10614;53.198;6.570;2023-04-03T04:33:17;103428.19;;;1.97;84.06
20909;BME280;10614;53.198;6.570;2023-04-03T04:35:20;103430.63;;;1.94;84.15
20909;BME280;10614;53.198;6.570;2023-04-03T04:37:21;103433.97;;;1.90;84.24
20909;BME280;10614;53.198;6.570;2023-04-03T04:39:23;103419.78;;;1.82;84.26
20909;BME280;10614;53.198;6.570;2023-04-03T04:41:25;103428.59;;;1.85;84.68
20909;BME280;10614;53.198;6.570;2023-04-03T04:43:27;103436.25;;;1.82;84.89
20909;BME280;10614;53.198;6.570;2023-04-03T04:45:29;103437.94;;;1.80;84.88
20909;BME280;10614;53.198;6.570;2023-04-03T04:47:32;103444.88;;;1.81;85.09
20909;BME280;10614;53.198;6.570;2023-04-03T04:49:34;103444.00;;;1.81;85.36
20909;BME280;10614;53.198;6.570;2023-04-03T04:51:36;103447.31;;;1.77;85.43
20909;BME280;10614;53.198;6.570;2023-04-03T04:53:38;103450.69;;;1.74;85.80
20909;BME280;10614;53.198;6.570;2023-04-03T04:55:39;103451.44;;;1.72;85.98
20909;BME280;10614;53.198;6.570;2023-04-03T04:57:41;103456.50;;;1.68;85.61
20909;BME280;10614;53.198;6.570;2023-04-03T04:59:43;103458.19;;;1.66;86.41
20909;BME280;10614;53.198;6.570;2023-04-03T05:01:45;103469.38;;;1.65;86.56
20909;BME280;10614;53.198;6.570;2023-04-03T05:03:48;103468.38;;;1.62;86.65
20909;BME280;10614;53.198;6.570;2023-04-03T05:05:50;103464.00;;;1.61;86.82
20909;BME280;10614;53.198;6.570;2023-04-03T05:07:52;103471.78;;;1.61;86.63
20909;BME280;10614;53.198;6.570;2023-04-03T05:09:53;103468.22;;;1.57;87.19
20909;BME280;10614;53.198;6.570;2023-04-03T05:11:55;103465.53;;;1.56;87.35
20909;BME280;10614;53.198;6.570;2023-04-03T05:13:57;103469.88;;;1.57;87.14
20909;BME280;10614;53.198;6.570;2023-04-03T05:16:00;103471.59;;;1.56;87.34
20909;BME280;10614;53.198;6.570;2023-04-03T05:18:01;103481.03;;;1.54;87.17
20909;BME280;10614;53.198;6.570;2023-04-03T05:20:06;103477.50;;;1.52;87.51
20909;BME280;10614;53.198;6.570;2023-04-03T05:22:09;103473.97;;;1.50;87.74
20909;BME280;10614;53.198;6.570;2023-04-03T05:24:12;103473.06;;;1.50;87.86
20909;BME280;10614;53.198;6.570;2023-04-03T05:26:13;103476.56;;;1.50;88.10
20909;BME280;10614;53.198;6.570;2023-04-03T05:28:15;103471.31;;;1.48;88.26
20909;BME280;10614;53.198;6.570;2023-04-03T05:30:17;103478.22;;;1.48;88.43
20909;BME280;10614;53.198;6.570;2023-04-03T05:32:20;103478.22;;;1.48;88.60
20909;BME280;10614;53.198;6.570;2023-04-03T05:34:22;103475.63;;;1.48;88.85
20909;BME280;10614;53.198;6.570;2023-04-03T05:36:25;103481.63;;;1.47;88.89
20909;BME280;10614;53.198;6.570;2023-04-03T05:38:31;103471.13;;;1.44;89.18
20909;BME280;10614;53.198;6.570;2023-04-03T05:40:33;103470.06;;;1.39;89.59
20909;BME280;10614;53.198;6.570;2023-04-03T05:42:35;103476.03;;;1.36;89.56
20909;BME280;10614;53.198;6.570;2023-04-03T05:44:36;103480.19;;;1.33;90.17
20909;BME280;10614;53.198;6.570;2023-04-03T05:46:38;103480.19;;;1.33;90.07
20909;BME280;10614;53.198;6.570;2023-04-03T05:48:40;103485.44;;;1.34;89.88
20909;BME280;10614;53.198;6.570;2023-04-03T05:50:42;103489.88;;;1.37;90.28
20909;BME280;10614;53.198;6.570;2023-04-03T05:52:48;103494.22;;;1.38;90.20
20909;BME280;10614;53.198;6.570;2023-04-03T05:54:50;103489.88;;;1.37;90.55
20909;BME280;10614;53.198;6.570;2023-04-03T05:56:52;103494.22;;;1.38;90.44
20909;BME280;10614;53.198;6.570;2023-04-03T05:58:55;103495.13;;;1.38;90.63
20909;BME280;10614;53.198;6.570;2023-04-03T06:00:57;103499.41;;;1.38;90.74
20909;BME280;10614;53.198;6.570;2023-04-03T06:02:59;103503.81;;;1.39;90.54
20909;BME280;10614;53.198;6.570;2023-04-03T06:05:01;103500.34;;;1.38;90.81
20909;BME280;10614;53.198;6.570;2023-04-03T06:07:09;103499.50;;;1.39;90.87
20909;BME280;10614;53.198;6.570;2023-04-03T06:09:14;103497.78;;;1.40;90.92
20909;BME280;10614;53.198;6.570;2023-04-03T06:11:17;103502.16;;;1.41;91.00
20909;BME280;10614;53.198;6.570;2023-04-03T06:13:19;103508.22;;;1.41;91.11
20909;BME280;10614;53.198;6.570;2023-04-03T06:15:21;103498.72;;;1.42;91.29
20909;BME280;10614;53.198;6.570;2023-04-03T06:17:24;103503.13;;;1.43;91.41
20909;BME280;10614;53.198;6.570;2023-04-03T06:19:27;103498.81;;;1.43;91.53
20909;BME280;10614;53.198;6.570;2023-04-03T06:21:29;103510.94;;;1.44;91.64
20909;BME280;10614;53.198;6.570;2023-04-03T06:23:31;103513.59;;;1.46;91.82
20909;BME280;10614;53.198;6.570;2023-04-03T06:25:34;103512.78;;;1.47;92.02
20909;BME280;10614;53.198;6.570;2023-04-03T06:27:36;103512.78;;;1.47;91.83
20909;BME280;10614;53.198;6.570;2023-04-03T06:29:42;103515.38;;;1.47;92.16
20909;BME280;10614;53.198;6.570;2023-04-03T06:31:46;103512.91;;;1.50;92.28
20909;BME280;10614;53.198;6.570;2023-04-03T06:33:51;103512.09;;;1.51;92.49
20909;BME280;10614;53.198;6.570;2023-04-03T06:35:56;103512.16;;;1.53;92.48
20909;BME280;10614;53.198;6.570;2023-04-03T06:37:58;103519.09;;;1.54;92.73
20909;BME280;10614;53.198;6.570;2023-04-03T06:40:00;103520.81;;;1.53;92.32
20909;BME280;10614;53.198;6.570;2023-04-03T06:42:04;103513.97;;;1.55;92.80
20909;BME280;10614;53.198;6.570;2023-04-03T06:44:06;103520.06;;;1.56;92.85
20909;BME280;10614;53.198;6.570;2023-04-03T06:46:14;103521.88;;;1.58;92.92
20909;BME280;10614;53.198;6.570;2023-04-03T06:48:16;103528.03;;;1.60;92.96
20909;BME280;10614;53.198;6.570;2023-04-03T06:50:19;103522.84;;;1.60;93.01
20909;BME280;10614;53.198;6.570;2023-04-03T06:52:21;103527.25;;;1.63;92.83
20909;BME280;10614;53.198;6.570;2023-04-03T06:54:23;103523.88;;;1.64;92.96
20909;BME280;10614;53.198;6.570;2023-04-03T06:56:25;103523.97;;;1.67;93.26
20909;BME280;10614;53.198;6.570;2023-04-03T06:58:29;103529.19;;;1.68;93.23
20909;BME280;10614;53.198;6.570;2023-04-03T07:00:31;103533.59;;;1.69;93.11
20909;BME280;10614;53.198;6.570;2023-04-03T07:02:33;103532.81;;;1.72;93.11
20909;BME280;10614;53.198;6.570;2023-04-03T07:04:35;103533.69;;;1.73;93.24
20909;BME280;10614;53.198;6.570;2023-04-03T07:06:37;103544.25;;;1.76;93.18
20909;BME280;10614;53.198;6.570;2023-04-03T07:08:39;103547.75;;;1.78;93.05
20909;BME280;10614;53.198;6.570;2023-04-03T07:10:42;103547.91;;;1.81;93.19
20909;BME280;10614;53.198;6.570;2023-04-03T07:12:45;103552.31;;;1.83;93.22
20909;BME280;10614;53.198;6.570;2023-04-03T07:14:48;103558.47;;;1.85;92.82
20909;BME280;10614;53.198;6.570;2023-04-03T07:16:50;103562.91;;;1.88;93.58
20909;BME280;10614;53.198;6.570;2023-04-03T07:18:52;103562.91;;;1.88;93.11
20909;BME280;10614;53.198;6.570;2023-04-03T07:20:54;103557.63;;;1.86;92.99
20909;BME280;10614;53.198;6.570;2023-04-03T07:22:56;103561.25;;;1.90;93.11
20909;BME280;10614;53.198;6.570;2023-04-03T07:24:57;103564.84;;;1.94;93.06
20909;BME280;10614;53.198;6.570;2023-04-03T07:27:00;103565.72;;;1.94;93.02
20909;BME280;10614;53.198;6.570;2023-04-03T07:29:02;103569.25;;;1.96;92.99
20909;BME280;10614;53.198;6.570;2023-04-03T07:31:10;103570.22;;;1.98;93.21
20909;BME280;10614;53.198;6.570;2023-04-03T07:33:15;103568.56;;;2.00;92.85
20909;BME280;10614;53.198;6.570;2023-04-03T07:35:18;103572.13;;;2.02;92.75
20909;BME280;10614;53.198;6.570;2023-04-03T07:37:20;103580.00;;;2.05;93.13
20909;BME280;10614;53.198;6.570;2023-04-03T07:39:22;103574.97;;;2.08;92.57
20909;BME280;10614;53.198;6.570;2023-04-03T07:41:24;103578.47;;;2.10;92.93
20909;BME280;10614;53.198;6.570;2023-04-03T07:43:26;103570.75;;;2.12;92.65
20909;BME280;10614;53.198;6.570;2023-04-03T07:45:28;103578.66;;;2.15;92.65
20909;BME280;10614;53.198;6.570;2023-04-03T07:47:31;103585.69;;;2.18;92.68
20909;BME280;10614;53.198;6.570;2023-04-03T07:49:33;103577.09;;;2.19;92.34
20909;BME280;10614;53.198;6.570;2023-04-03T07:51:38;103591.19;;;2.25;92.82
20909;BME280;10614;53.198;6.570;2023-04-03T07:53:40;103592.19;;;2.29;92.57
20909;BME280;10614;53.198;6.570;2023-04-03T07:55:42;103583.69;;;2.33;92.44
20909;BME280;10614;53.198;6.570;2023-04-03T07:57:44;103591.59;;;2.36;92.04
20909;BME280;10614;53.198;6.570;2023-04-03T07:59:48;103583.88;;;2.38;91.92
20909;BME280;10614;53.198;6.570;2023-04-03T08:01:50;103589.16;;;2.41;91.98
20909;BME280;10614;53.198;6.570;2023-04-03T08:03:53;103583.25;;;2.45;92.07
20909;BME280;10614;53.198;6.570;2023-04-03T08:06:02;103581.69;;;2.48;91.75
20909;BME280;10614;53.198;6.570;2023-04-03T08:08:04;103596.53;;;2.52;91.13
20909;BME280;10614;53.198;6.570;2023-04-03T08:10:07;103588.81;;;2.54;91.62
20909;BME280;10614;53.198;6.570;2023-04-03T08:12:09;103589.88;;;2.59;90.97
20909;BME280;10614;53.198;6.570;2023-04-03T08:14:12;103595.19;;;2.62;91.31
20909;BME280;10614;53.198;6.570;2023-04-03T08:16:17;103588.31;;;2.64;90.57
20909;BME280;10614;53.198;6.570;2023-04-03T08:18:19;103592.75;;;2.67;90.21
20909;BME280;10614;53.198;6.570;2023-04-03T08:20:26;103588.56;;;2.70;90.21
20909;BME280;10614;53.198;6.570;2023-04-03T08:22:29;103584.38;;;2.74;89.75
20909;BME280;10614;53.198;6.570;2023-04-03T08:24:32;103582.66;;;2.76;89.99
20909;BME280;10614;53.198;6.570;2023-04-03T08:26:35;103586.22;;;2.78;89.52
20909;BME280;10614;53.198;6.570;2023-04-03T08:28:38;103581.16;;;2.81;89.00
20909;BME280;10614;53.198;6.570;2023-04-03T08:30:41;103590.03;;;2.88;87.95
20909;BME280;10614;53.198;6.570;2023-04-03T08:32:47;103581.47;;;2.90;87.10
20909;BME280;10614;53.198;6.570;2023-04-03T08:34:51;103583.34;;;2.94;86.11
20909;BME280;10614;53.198;6.570;2023-04-03T08:36:55;103581.78;;;3.00;85.08
20909;BME280;10614;53.198;6.570;2023-04-03T08:38:57;103586.28;;;3.04;84.09
20909;BME280;10614;53.198;6.570;2023-04-03T08:41:04;103578.59;;;3.07;83.08
20909;BME280;10614;53.198;6.570;2023-04-03T08:43:30;103587.44;;;3.12;82.74
20909;BME280;10614;53.198;6.570;2023-04-03T08:45:42;103585.03;;;3.18;81.63
20909;BME280;10614;53.198;6.570;2023-04-03T08:47:52;103580.84;;;3.22;81.02
20909;BME280;10614;53.198;6.570;2023-04-03T08:49:59;103589.59;;;3.24;79.11
20909;BME280;10614;53.198;6.570;2023-04-03T08:52:07;103581.00;;;3.26;78.36
20909;BME280;10614;53.198;6.570;2023-04-03T08:54:20;103581.09;;;3.29;77.62
20909;BME280;10614;53.198;6.570;2023-04-03T08:56:25;103575.94;;;3.31;77.87
20909;BME280;10614;53.198;6.570;2023-04-03T08:58:29;103569.94;;;3.33;76.52
20909;BME280;10614;53.198;6.570;2023-04-03T09:00:40;103571.78;;;3.36;76.13
20909;BME280;10614;53.198;6.570;2023-04-03T09:02:46;103564.97;;;3.40;75.08
20909;BME280;10614;53.198;6.570;2023-04-03T09:04:49;103566.72;;;3.41;74.74
20909;BME280;10614;53.198;6.570;2023-04-03T09:06:55;103565.16;;;3.46;73.70
20909;BME280;10614;53.198;6.570;2023-04-03T09:09:10;103566.16;;;3.49;72.93
20909;BME280;10614;53.198;6.570;2023-04-03T09:11:17;103565.28;;;3.50;73.04
20909;BME280;10614;53.198;6.570;2023-04-03T09:13:28;103567.09;;;3.51;72.42
20909;BME280;10614;53.198;6.570;2023-04-03T09:15:32;103560.19;;;3.53;72.07
20909;BME280;10614;53.198;6.570;2023-04-03T09:17:41;103556.84;;;3.57;72.01
20909;BME280;10614;53.198;6.570;2023-04-03T09:19:50;103563.09;;;3.63;71.02
20909;BME280;10614;53.198;6.570;2023-04-03T09:21:57;103570.09;;;3.65;70.53
20909;BME280;10614;53.198;6.570;2023-04-03T09:24:04;103568.50;;;3.69;70.35
20909;BME280;10614;53.198;6.570;2023-04-03T09:26:09;103557.34;;;3.73;70.34
20909;BME280;10614;53.198;6.570;2023-04-03T09:28:14;103559.16;;;3.75;69.94
20909;BME280;10614;53.198;6.570;2023-04-03T09:30:20;103558.44;;;3.79;70.07
20909;BME280;10614;53.198;6.570;2023-04-03T09:32:26;103559.47;;;3.85;69.02
20909;BME280;10614;53.198;6.570;2023-04-03T09:34:32;103555.91;;;3.83;68.00
20909;BME280;10614;53.198;6.570;2023-04-03T09:36:42;103551.66;;;3.86;67.31
20909;BME280;10614;53.198;6.570;2023-04-03T09:38:44;103554.44;;;3.91;67.86
20909;BME280;10614;53.198;6.570;2023-04-03T09:40:48;103560.69;;;3.96;66.63
20909;BME280;10614;53.198;6.570;2023-04-03T09:42:52;103558.25;;;4.02;66.55
20909;BME280;10614;53.198;6.570;2023-04-03T09:44:55;103565.28;;;4.05;65.96
20909;BME280;10614;53.198;6.570;2023-04-03T09:46:59;103563.59;;;4.07;65.68
20909;BME280;10614;53.198;6.570;2023-04-03T09:49:04;103556.78;;;4.10;66.11
20909;BME280;10614;53.198;6.570;2023-04-03T09:51:15;103554.25;;;4.13;65.70
20909;BME280;10614;53.198;6.570;2023-04-03T09:53:30;103556.13;;;4.17;65.28
20909;BME280;10614;53.198;6.570;2023-04-03T09:55:32;103546.66;;;4.21;64.32
20909;BME280;10614;53.198;6.570;2023-04-03T09:57:44;103547.56;;;4.21;65.01
20909;BME280;10614;53.198;6.570;2023-04-03T09:59:55;103553.78;;;4.27;63.07
20909;BME280;10614;53.198;6.570;2023-04-03T10:02:02;103542.50;;;4.28;64.03
20909;BME280;10614;53.198;6.570;2023-04-03T10:04:08;103549.78;;;4.38;62.98
20909;BME280;10614;53.198;6.570;2023-04-03T10:06:23;103542.91;;;4.41;63.09
20909;BME280;10614;53.198;6.570;2023-04-03T10:08:28;103539.56;;;4.46;63.84
20909;BME280;10614;53.198;6.570;2023-04-03T10:10:30;103541.44;;;4.50;62.48
20909;BME280;10614;53.198;6.570;2023-04-03T10:12:31;103546.78;;;4.54;62.24
20909;BME280;10614;53.198;6.570;2023-04-03T10:14:36;103544.31;;;4.59;62.15
20909;BME280;10614;53.198;6.570;2023-04-03T10:16:40;103538.31;;;4.63;62.47
20909;BME280;10614;53.198;6.570;2023-04-03T10:18:47;103533.13;;;4.64;62.26
20909;BME280;10614;53.198;6.570;2023-04-03T10:20:52;103541.03;;;4.68;62.95
20909;BME280;10614;53.198;6.570;2023-04-03T10:23:02;103543.72;;;4.69;62.40
20909;BME280;10614;53.198;6.570;2023-04-03T10:25:12;103542.97;;;4.75;62.13
20909;BME280;10614;53.198;6.570;2023-04-03T10:27:19;103537.88;;;4.79;61.69
20909;BME280;10614;53.198;6.570;2023-04-03T10:29:40;103536.16;;;4.80;61.22
20909;BME280;10614;53.198;6.570;2023-04-03T10:31:45;103541.63;;;4.89;60.91
20909;BME280;10614;53.198;6.570;2023-04-03T10:33:55;103534.91;;;4.97;60.10
20909;BME280;10614;53.198;6.570;2023-04-03T10:36:09;103521.03;;;5.00;58.88
20909;BME280;10614;53.198;6.570;2023-04-03T10:38:20;103523.78;;;5.04;59.36
20909;BME280;10614;53.198;6.570;2023-04-03T10:40:30;103523.09;;;5.12;59.08
20909;BME280;10614;53.198;6.570;2023-04-03T10:42:39;103529.31;;;5.17;57.72
20909;BME280;10614;53.198;6.570;2023-04-03T10:45:06;103526.00;;;5.24;57.16
20909;BME280;10614;53.198;6.570;2023-04-03T10:47:15;103513.94;;;5.29;57.90
20909;BME280;10614;53.198;6.570;2023-04-03T10:49:25;103518.38;;;5.32;57.52
20909;BME280;10614;53.198;6.570;2023-04-03T10:51:39;103514.13;;;5.37;57.27
20909;BME280;10614;53.198;6.570;2023-04-03T10:53:46;103523.03;;;5.43;56.35
20909;BME280;10614;53.198;6.570;2023-04-03T10:55:57;103516.13;;;5.47;55.92